Time;durP1;ratioP1;P1;durP2;ratioP2;P2;SDS_P1;SDS_P2;PMS_P1;PMS_P2;Temp;Humidity;BMP_temperature;BMP_pressure;BME280_temperature;BME280_humidity;BME280_pressure;Samples;Min_cycle;Max_cycle;Signal;HPM_P1;HPM_P2
2021/06/20 00:01:21;;;;;;;5.30;4.78;;;16.40;64.50;;;;;;5071579;28;20056;-83
2021/06/20 00:03:47;;;;;;;5.78;5.28;;;16.40;64.60;;;;;;5071282;28;20040;-83
2021/06/20 00:06:34;;;;;;;5.05;4.65;;;16.40;64.60;;;;;;5086420;28;20033;-83
2021/06/20 00:09:08;;;;;;;4.80;4.40;;;16.30;64.50;;;;;;5069882;28;20032;-84
2021/06/20 00:11:37;;;;;;;5.75;5.30;;;16.40;64.60;;;;;;5086189;28;20024;-81
2021/06/20 00:14:06;;;;;;;5.03;4.57;;;16.30;64.50;;;;;;5086473;28;20043;-83
2021/06/20 00:16:32;;;;;;;5.32;4.82;;;16.30;64.50;;;;;;5086820;28;20079;-84
2021/06/20 00:18:58;;;;;;;5.72;5.22;;;16.30;64.50;;;;;;5086598;28;20042;-80
2021/06/20 00:21:25;;;;;;;5.70;5.18;;;16.30;64.60;;;;;;5070453;28;20029;-82
2021/06/20 00:23:51;;;;;;;5.88;5.20;;;16.30;64.60;;;;;;5070647;28;20039;-81
2021/06/20 00:26:18;;;;;;;6.05;5.45;;;16.30;64.60;;;;;;5086491;28;20032;-84
2021/06/20 00:28:45;;;;;;;6.40;5.22;;;16.30;64.70;;;;;;5070064;28;20032;-83
2021/06/20 00:31:12;;;;;;;5.43;4.78;;;16.30;64.70;;;;;;5070316;28;20560;-83
2021/06/20 00:33:40;;;;;;;5.70;5.20;;;16.30;64.80;;;;;;5071049;28;20517;-83
2021/06/20 00:36:09;;;;;;;5.47;5.03;;;16.30;64.80;;;;;;5090675;28;20032;-83
2021/06/20 00:38:35;;;;;;;5.15;4.65;;;16.30;64.80;;;;;;5090048;28;20086;-84
2021/06/20 00:41:03;;;;;;;5.93;5.20;;;16.30;64.80;;;;;;5092576;28;20395;-84
2021/06/20 00:43:29;;;;;;;5.20;4.68;;;16.30;64.90;;;;;;5069480;28;20059;-82
2021/06/20 00:45:55;;;;;;;4.97;4.57;;;16.20;64.70;;;;;;5090258;28;20035;-82
2021/06/20 00:48:20;;;;;;;5.35;4.95;;;16.20;64.70;;;;;;5090506;28;20499;-84
2021/06/20 00:50:47;;;;;;;10.00;4.95;;;16.20;64.80;;;;;;5089453;28;20055;-81
2021/06/20 00:53:13;;;;;;;4.93;4.53;;;16.20;64.80;;;;;;5090348;28;20028;-83
2021/06/20 00:55:39;;;;;;;6.03;5.00;;;16.30;65.00;;;;;;5086778;28;20040;-83
2021/06/20 00:58:07;;;;;;;4.78;4.38;;;16.20;64.80;;;;;;5072764;28;20032;-82
2021/06/20 01:00:36;;;;;;;4.95;4.53;;;16.20;64.90;;;;;;5088974;28;20032;-84
2021/06/20 01:03:04;;;;;;;4.10;3.70;;;16.20;64.90;;;;;;5089559;28;20058;-83
2021/06/20 01:05:30;;;;;;;4.95;4.53;;;16.20;64.90;;;;;;5089578;28;20085;-82
2021/06/20 01:07:57;;;;;;;5.13;4.72;;;16.20;64.90;;;;;;5105647;28;20035;-83
2021/06/20 01:10:26;;;;;;;5.47;4.75;;;16.20;64.90;;;;;;5089625;28;20396;-83
2021/06/20 01:12:52;;;;;;;4.85;4.45;;;16.20;65.00;;;;;;5090189;28;20297;-83
2021/06/20 01:15:18;;;;;;;4.93;4.53;;;16.20;65.00;;;;;;5105064;28;20059;-82
2021/06/20 01:17:45;;;;;;;4.53;4.13;;;16.20;65.00;;;;;;5089556;28;20410;-83
2021/06/20 01:20:16;;;;;;;4.60;4.20;;;16.20;65.00;;;;;;5069573;28;20089;-83
2021/06/20 01:22:45;;;;;;;5.03;4.63;;;16.20;65.10;;;;;;5067592;28;20571;-84
2021/06/20 01:25:14;;;;;;;4.47;4.10;;;16.20;65.10;;;;;;5084097;28;20432;-84
2021/06/20 01:27:43;;;;;;;4.45;4.05;;;16.10;64.90;;;;;;5089946;28;20060;-83
2021/06/20 01:30:13;;;;;;;4.78;4.38;;;16.20;65.10;;;;;;5090345;28;20383;-83
2021/06/20 01:32:39;;;;;;;5.40;4.32;;;16.10;64.90;;;;;;5089603;28;20467;-83
2021/06/20 01:35:08;;;;;;;4.95;4.55;;;16.10;64.90;;;;;;5089674;28;20031;-82
2021/06/20 01:37:35;;;;;;;5.00;4.60;;;16.10;65.00;;;;;;5106319;28;20038;-84
2021/06/20 01:40:01;;;;;;;5.53;4.40;;;16.10;65.00;;;;;;5088048;28;20523;-80
2021/06/20 01:42:27;;;;;;;5.38;4.88;;;16.10;65.00;;;;;;5070425;28;20040;-84
2021/06/20 01:44:57;;;;;;;5.53;4.35;;;16.10;65.00;;;;;;5085197;28;20039;-83
2021/06/20 01:47:25;;;;;;;4.80;4.38;;;16.00;65.00;;;;;;5091105;28;20136;-84
2021/06/20 01:49:52;;;;;;;4.38;3.97;;;16.10;65.10;;;;;;5093557;28;20028;-85
2021/06/20 01:52:25;;;;;;;7.18;4.38;;;16.10;65.10;;;;;;5092958;28;20028;-81
2021/06/20 01:54:53;;;;;;;5.07;4.38;;;16.00;65.10;;;;;;5109488;28;20028;-82
2021/06/20 01:57:25;;;;;;;4.82;4.35;;;16.10;65.20;;;;;;5093491;28;20031;-84
2021/06/20 01:59:52;;;;;;;5.28;4.82;;;16.10;65.30;;;;;;5093220;28;20036;-79
2021/06/20 02:02:19;;;;;;;4.72;4.32;;;16.00;65.10;;;;;;5092708;28;20530;-83
2021/06/20 02:04:46;;;;;;;4.95;4.50;;;16.00;65.10;;;;;;5091743;28;20039;-84
2021/06/20 02:07:13;;;;;;;4.57;4.18;;;16.10;65.30;;;;;;5093631;28;20031;-86
2021/06/20 02:09:39;;;;;;;5.40;4.90;;;16.00;65.20;;;;;;5095696;28;20024;-83
2021/06/20 02:12:07;;;;;;;5.75;4.75;;;16.00;65.20;;;;;;5093432;28;20020;-84
2021/06/20 02:14:35;;;;;;;5.05;4.65;;;16.00;65.20;;;;;;5093784;28;20120;-80
2021/06/20 02:17:10;;;;;;;4.70;4.30;;;16.00;65.30;;;;;;5093405;28;20032;-83
2021/06/20 02:19:36;;;;;;;4.63;4.30;;;16.00;65.30;;;;;;5093411;28;20356;-81
2021/06/20 02:22:02;;;;;;;5.45;4.07;;;16.00;65.30;;;;;;5092344;28;20028;-81
2021/06/20 02:24:28;;;;;;;4.97;4.05;;;16.00;65.30;;;;;;5092619;28;20032;-84
2021/06/20 02:26:54;;;;;;;4.70;4.30;;;16.00;65.30;;;;;;5092284;28;20031;-82
2021/06/20 02:29:20;;;;;;;4.93;4.43;;;16.00;65.30;;;;;;5092615;28;20105;-82
2021/06/20 02:31:46;;;;;;;5.15;4.75;;;16.00;65.40;;;;;;5093104;28;20032;-84
2021/06/20 02:34:12;;;;;;;5.20;4.78;;;16.00;65.40;;;;;;5092911;28;20456;-83
2021/06/20 02:36:38;;;;;;;5.15;4.75;;;16.00;65.40;;;;;;5091550;28;20024;-84
2021/06/20 02:39:04;;;;;;;5.45;4.95;;;16.00;65.50;;;;;;5093044;28;20036;-82
2021/06/20 02:41:30;;;;;;;4.97;4.47;;;16.00;65.50;;;;;;5092545;28;20185;-81
2021/06/20 02:43:56;;;;;;;5.63;5.13;;;16.00;65.50;;;;;;5091232;28;20499;-83
2021/06/20 02:46:22;;;;;;;6.40;5.22;;;16.00;65.50;;;;;;5092826;28;20285;-83
2021/06/20 02:48:48;;;;;;;4.80;4.40;;;16.00;65.50;;;;;;5091179;28;20055;-81
2021/06/20 02:51:14;;;;;;;5.55;5.05;;;16.00;65.60;;;;;;5091982;28;20031;-84
2021/06/20 02:53:40;;;;;;;5.55;5.05;;;16.00;65.60;;;;;;5090577;28;20036;-81
2021/06/20 02:56:06;;;;;;;5.80;5.30;;;16.00;65.60;;;;;;5091432;28;20042;-81
2021/06/20 02:58:32;;;;;;;6.32;5.65;;;16.00;65.60;;;;;;5108391;28;20024;-81
2021/06/20 03:00:58;;;;;;;6.10;5.50;;;16.00;65.60;;;;;;5091796;28;20055;-82
2021/06/20 03:03:24;;;;;;;5.97;5.38;;;16.00;65.60;;;;;;5107862;28;20047;-82
2021/06/20 03:05:50;;;;;;;6.30;5.70;;;16.00;65.70;;;;;;5107873;28;20024;-83
2021/06/20 03:08:16;;;;;;;6.00;5.43;;;16.00;65.70;;;;;;5092322;28;20036;-82
2021/06/20 03:10:42;;;;;;;6.78;6.18;;;16.00;65.70;;;;;;5092235;28;20032;-84
2021/06/20 03:13:08;;;;;;;6.18;5.05;;;16.00;65.70;;;;;;5092984;28;20077;-83
2021/06/20 03:15:38;;;;;;;6.28;5.72;;;15.90;65.50;;;;;;5092198;28;20028;-81
2021/06/20 03:18:05;;;;;;;6.60;6.00;;;16.00;65.70;;;;;;5092094;28;20028;-83
2021/06/20 03:20:32;;;;;;;7.03;5.93;;;16.00;65.70;;;;;;5091291;28;20162;-83
2021/06/20 03:22:58;;;;;;;7.07;5.93;;;15.90;65.50;;;;;;5090795;28;20075;-82
2021/06/20 03:25:24;;;;;;;6.28;5.78;;;15.90;65.50;;;;;;5107799;28;20535;-83
2021/06/20 03:27:50;;;;;;;7.53;5.93;;;15.90;65.60;;;;;;5090597;28;20229;-80
2021/06/20 03:30:17;;;;;;;6.90;5.90;;;15.90;65.60;;;;;;5091364;28;20159;-84
2021/06/20 03:32:43;;;;;;;6.65;6.05;;;15.90;65.60;;;;;;5090305;28;20024;-82
2021/06/20 03:35:09;;;;;;;6.65;5.72;;;15.90;65.60;;;;;;5091846;28;20032;-82
2021/06/20 03:37:35;;;;;;;7.07;6.47;;;15.90;65.60;;;;;;5091373;28;20411;-82
2021/06/20 03:40:02;;;;;;;6.88;6.25;;;15.80;65.50;;;;;;5091466;28;20051;-83
2021/06/20 03:42:28;;;;;;;6.47;5.80;;;15.90;65.70;;;;;;5091628;28;20035;-82
2021/06/20 03:44:54;;;;;;;7.22;6.53;;;15.90;65.70;;;;;;5092111;28;20063;-86
2021/06/20 03:47:20;;;;;;;7.35;6.28;;;15.90;65.70;;;;;;5091941;28;20079;-87
2021/06/20 03:49:46;;;;;;;9.98;7.40;;;15.80;65.50;;;;;;5091485;28;20043;-83
2021/06/20 03:52:12;;;;;;;7.40;6.70;;;15.90;65.70;;;;;;5107492;28;20105;-86
2021/06/20 03:54:38;;;;;;;7.15;6.55;;;15.90;65.70;;;;;;5092503;28;20483;-80
2021/06/20 03:57:04;;;;;;;7.05;6.45;;;15.80;65.60;;;;;;5090589;28;20070;-82
2021/06/20 03:59:30;;;;;;;8.43;7.47;;;15.90;65.80;;;;;;5091416;28;20036;-83
2021/06/20 04:01:56;;;;;;;7.95;7.20;;;15.80;65.60;;;;;;5090425;28;20036;-84
2021/06/20 04:04:22;;;;;;;6.80;6.28;;;15.80;65.60;;;;;;5107539;28;20032;-80
2021/06/20 04:06:49;;;;;;;7.40;6.82;;;15.80;65.70;;;;;;5107076;28;20145;-81
2021/06/20 04:09:15;;;;;;;6.88;6.18;;;15.80;65.70;;;;;;5095139;28;20032;-81
2021/06/20 04:11:41;;;;;;;8.38;6.20;;;15.80;65.70;;;;;;5095062;28;20480;-83
2021/06/20 04:14:07;;;;;;;7.13;6.50;;;15.80;65.70;;;;;;5095299;28;20067;-82
2021/06/20 04:16:33;;;;;;;7.45;6.75;;;15.80;65.70;;;;;;5094993;28;20032;-83
2021/06/20 04:19:00;;;;;;;7.22;6.63;;;15.80;65.70;;;;;;5095189;28;20043;-81
2021/06/20 04:21:26;;;;;;;7.30;6.32;;;15.80;65.70;;;;;;5093528;28;20044;-80
2021/06/20 04:23:53;;;;;;;7.78;6.97;;;15.80;65.70;;;;;;5094903;28;20440;-82
2021/06/20 04:26:19;;;;;;;7.15;6.38;;;15.80;65.70;;;;;;5094875;28;20070;-84
2021/06/20 04:28:45;;;;;;;7.05;6.45;;;15.80;65.70;;;;;;5095218;28;20035;-81
2021/06/20 04:31:11;;;;;;;6.88;6.15;;;15.80;65.70;;;;;;5095275;28;20024;-81
2021/06/20 04:33:37;;;;;;;7.82;6.97;;;15.80;65.80;;;;;;5095401;28;20020;-85
2021/06/20 04:36:04;;;;;;;7.15;6.53;;;15.80;65.80;;;;;;5110232;28;20123;-79
2021/06/20 04:38:30;;;;;;;6.63;6.03;;;15.80;65.80;;;;;;5110343;28;20020;-84
2021/06/20 04:41:01;;;;;;;7.32;6.65;;;15.80;65.80;;;;;;5098404;28;20036;-82
2021/06/20 04:43:58;;;;;;;7.15;6.55;;;15.70;65.60;;;;;;5094105;28;20040;-83
2021/06/20 04:46:34;;;;;;;7.38;6.68;;;15.70;65.60;;;;;;5095225;28;20286;-83
2021/06/20 04:49:03;;;;;;;7.88;6.15;;;15.70;65.70;;;;;;5072527;28;20032;-83
2021/06/20 04:51:32;;;;;;;6.55;5.90;;;15.70;65.60;;;;;;5086412;28;20032;-83
2021/06/20 04:53:58;;;;;;;6.85;6.15;;;15.70;65.60;;;;;;5092208;28;20036;-83
2021/06/20 04:56:24;;;;;;;6.88;6.28;;;15.70;65.70;;;;;;5091423;28;20624;-81
2021/06/20 04:58:50;;;;;;;6.85;6.20;;;15.70;65.70;;;;;;5107400;28;20034;-83
2021/06/20 05:01:17;;;;;;;6.40;5.80;;;15.70;65.70;;;;;;5084133;28;20396;-82
2021/06/20 05:03:44;;;;;;;7.03;6.32;;;15.70;65.70;;;;;;5081577;28;20575;-81
2021/06/20 05:06:10;;;;;;;7.40;6.70;;;15.70;65.80;;;;;;5088470;28;20020;-81
2021/06/20 05:08:36;;;;;;;7.15;6.50;;;15.70;65.70;;;;;;5088711;28;20115;-82
2021/06/20 05:11:02;;;;;;;7.05;6.22;;;15.80;66.00;;;;;;5088757;28;20438;-82
2021/06/20 05:13:28;;;;;;;7.57;6.75;;;15.70;65.80;;;;;;5088138;28;20093;-82
2021/06/20 05:15:55;;;;;;;7.07;6.47;;;15.70;65.80;;;;;;5072224;28;20020;-84
2021/06/20 05:18:21;;;;;;;7.18;6.43;;;15.70;65.80;;;;;;5088459;28;20479;-82
2021/06/20 05:20:47;;;;;;;12.02;6.88;;;15.70;65.80;;;;;;5089871;28;20081;-87
2021/06/20 05:23:13;;;;;;;6.75;6.15;;;15.80;66.00;;;;;;5107611;28;20047;-84
2021/06/20 05:25:39;;;;;;;6.63;6.03;;;15.80;66.00;;;;;;5091408;28;20036;-85
2021/06/20 05:28:05;;;;;;;7.32;6.55;;;15.80;66.00;;;;;;5090458;28;20032;-87
2021/06/20 05:30:31;;;;;;;7.07;6.38;;;15.80;66.00;;;;;;5090384;28;20503;-84
2021/06/20 05:32:57;;;;;;;6.25;5.65;;;15.80;66.00;;;;;;5089186;28;20054;-83
2021/06/20 05:35:23;;;;;;;6.85;6.28;;;15.70;65.90;;;;;;5090933;28;20028;-84
2021/06/20 05:37:49;;;;;;;7.13;6.47;;;15.80;66.00;;;;;;5089829;28;20032;-85
2021/06/20 05:40:15;;;;;;;6.78;5.95;;;15.80;66.00;;;;;;5090847;28;20375;-84
2021/06/20 05:42:41;;;;;;;7.35;6.75;;;15.80;66.00;;;;;;5088258;28;20079;-86
2021/06/20 05:45:08;;;;;;;6.78;6.18;;;15.80;66.10;;;;;;5088475;28;20083;-84
2021/06/20 05:47:34;;;;;;;6.68;6.10;;;15.80;66.00;;;;;;5086983;28;20079;-82
2021/06/20 05:50:00;;;;;;;6.53;5.88;;;15.80;66.10;;;;;;5070547;28;20056;-85
2021/06/20 05:52:27;;;;;;;7.93;5.93;;;15.80;66.30;;;;;;5073000;28;20039;-82
2021/06/20 05:54:53;;;;;;;5.82;5.22;;;15.80;66.00;;;;;;5089560;28;20028;-82
2021/06/20 05:57:21;;;;;;;5.82;5.32;;;15.80;66.00;;;;;;5088934;28;20047;-82
2021/06/20 05:59:48;;;;;;;6.00;5.43;;;15.80;66.00;;;;;;5089627;28;20510;-85
2021/06/20 06:02:14;;;;;;;6.40;5.80;;;15.80;66.00;;;;;;5087135;28;20073;-83
2021/06/20 06:04:42;;;;;;;6.20;5.70;;;15.90;66.10;;;;;;5088954;28;20054;-83
2021/06/20 06:07:08;;;;;;;5.88;5.38;;;15.90;66.20;;;;;;5088771;28;20491;-85
2021/06/20 06:09:38;;;;;;;6.80;6.20;;;15.90;66.10;;;;;;5104751;28;20064;-86
2021/06/20 06:12:05;;;;;;;6.40;5.80;;;16.00;66.30;;;;;;5087311;28;20328;-85
2021/06/20 06:14:32;;;;;;;5.85;5.25;;;15.90;66.10;;;;;;5089259;28;20387;-85
2021/06/20 06:16:58;;;;;;;5.22;4.72;;;15.90;66.10;;;;;;5089386;28;20020;-88
2021/06/20 06:19:25;;;;;;;6.35;5.20;;;16.00;66.30;;;;;;5072547;28;20021;-82
2021/06/20 06:21:52;;;;;;;5.85;5.35;;;16.00;66.30;;;;;;5069214;28;20481;-85
2021/06/20 06:24:18;;;;;;;4.90;4.50;;;16.00;66.30;;;;;;5087114;28;20036;-90
2021/06/20 06:26:44;;;;;;;4.60;4.20;;;16.00;66.30;;;;;;5090926;28;20036;-85
2021/06/20 06:29:10;;;;;;;5.60;5.18;;;16.10;66.50;;;;;;5076653;28;20119;-92
2021/06/20 06:31:37;;;;;;;5.03;4.53;;;16.10;66.60;;;;;;5071157;28;20036;-93
2021/06/20 06:34:03;;;;;;;4.82;4.35;;;16.10;66.60;;;;;;5071274;28;20047;-93
2021/06/20 06:36:30;;;;;;;6.90;3.92;;;16.10;66.60;;;;;;5069816;28;20024;-87
2021/06/20 06:38:56;;;;;;;4.07;3.67;;;16.10;66.80;;;;;;5085764;28;20079;-90
2021/06/20 06:41:22;;;;;;;4.22;3.55;;;16.20;67.10;;;;;;5069348;28;20025;-86
2021/06/20 06:43:48;;;;;;;4.00;3.17;;;16.20;67.10;;;;;;5088783;28;20092;-88
2021/06/20 06:46:14;;;;;;;5.53;4.10;;;16.20;67.20;;;;;;5089440;28;20027;-84
2021/06/20 06:48:40;;;;;;;4.32;3.72;;;16.20;67.30;;;;;;5078597;28;20569;-82
2021/06/20 06:51:06;;;;;;;5.13;4.25;;;16.20;67.40;;;;;;5078104;28;20020;-86
2021/06/20 06:53:33;;;;;;;4.43;4.03;;;16.20;67.60;;;;;;5098008;28;20035;-89
2021/06/20 06:55:59;;;;;;;5.10;4.22;;;16.20;67.70;;;;;;5100457;28;20040;-89
2021/06/20 06:58:25;;;;;;;4.40;4.00;;;16.10;67.60;;;;;;5077577;28;20024;-90
2021/06/20 07:00:51;;;;;;;4.63;4.05;;;16.10;67.80;;;;;;5092817;28;20032;-86
2021/06/20 07:03:17;;;;;;;5.38;4.47;;;16.10;67.80;;;;;;5090612;28;20047;-88
2021/06/20 07:05:43;;;;;;;4.80;4.40;;;16.00;67.80;;;;;;5089667;28;20028;-85
2021/06/20 07:08:10;;;;;;;5.03;4.50;;;16.00;67.90;;;;;;5089548;28;20028;-86
2021/06/20 07:10:36;;;;;;;5.22;4.72;;;16.00;68.00;;;;;;5089484;28;20028;-87
2021/06/20 07:13:03;;;;;;;6.25;4.55;;;16.10;68.20;;;;;;5088248;28;20102;-83
2021/06/20 07:15:30;;;;;;;5.90;4.72;;;16.00;68.10;;;;;;5088158;28;20123;-83
2021/06/20 07:17:57;;;;;;;5.15;4.75;;;16.00;68.20;;;;;;5087715;28;20399;-83
2021/06/20 07:20:23;;;;;;;7.40;5.20;;;16.00;68.30;;;;;;5088070;28;20032;-83
2021/06/20 07:22:50;;;;;;;4.93;4.53;;;16.00;68.30;;;;;;5081882;28;20115;-85
2021/06/20 07:25:19;;;;;;;6.30;5.00;;;16.00;68.30;;;;;;5083692;28;20024;-83
2021/06/20 07:27:45;;;;;;;5.45;4.95;;;16.10;68.60;;;;;;5071275;28;20044;-88
2021/06/20 07:30:14;;;;;;;5.35;4.75;;;16.10;68.60;;;;;;5087120;28;20234;-87
2021/06/20 07:32:41;;;;;;;5.57;4.53;;;16.10;68.70;;;;;;5083442;28;20083;-86
2021/06/20 07:35:09;;;;;;;7.20;4.97;;;16.10;68.70;;;;;;5083252;28;20391;-87
2021/06/20 07:37:35;;;;;;;5.95;4.78;;;16.10;68.80;;;;;;5084463;28;20039;-82
2021/06/20 07:40:03;;;;;;;4.88;4.45;;;16.10;68.80;;;;;;5104072;28;20028;-83
2021/06/20 07:42:29;;;;;;;5.85;4.80;;;16.10;68.80;;;;;;5087011;28;20040;-84
2021/06/20 07:44:55;;;;;;;5.38;4.80;;;16.20;69.10;;;;;;5091361;28;20372;-84
2021/06/20 07:47:21;;;;;;;4.70;4.30;;;16.20;69.00;;;;;;5087765;28;20447;-84
2021/06/20 07:49:47;;;;;;;5.57;4.65;;;16.20;69.10;;;;;;5091561;28;20078;-85
2021/06/20 07:52:13;;;;;;;5.07;4.30;;;16.20;69.00;;;;;;5090706;28;20028;-85
2021/06/20 07:54:49;;;;;;;6.78;3.83;;;16.30;69.20;;;;;;5090679;28;20039;-86
2021/06/20 07:57:24;;;;;;;5.25;4.75;;;16.30;69.10;;;;;;5093835;28;20024;-87
2021/06/20 07:59:51;;;;;;;4.07;3.75;;;16.30;69.20;;;;;;5094288;28;20123;-83
2021/06/20 08:02:17;;;;;;;8.15;4.30;;;16.40;69.20;;;;;;5092235;28;20035;-82
2021/06/20 08:04:44;;;;;;;4.20;3.90;;;16.40;69.10;;;;;;5091109;28;20047;-87
2021/06/20 08:07:11;;;;;;;6.43;4.80;;;16.40;69.10;;;;;;5093389;28;20028;-86
2021/06/20 08:09:37;;;;;;;4.90;4.32;;;16.50;69.20;;;;;;5092837;28;20040;-84
2021/06/20 08:12:05;;;;;;;5.25;4.50;;;16.50;69.20;;;;;;5092410;28;20088;-85
2021/06/20 08:14:31;;;;;;;4.80;4.20;;;16.50;69.10;;;;;;5074841;28;20024;-87
2021/06/20 08:16:57;;;;;;;4.65;4.22;;;16.50;69.10;;;;;;5093620;28;20028;-87
2021/06/20 08:19:23;;;;;;;7.47;4.47;;;16.60;69.20;;;;;;5076754;28;20092;-79
2021/06/20 08:21:49;;;;;;;11.63;4.47;;;16.50;69.00;;;;;;5071155;28;20064;-78
2021/06/20 08:24:16;;;;;;;4.03;3.63;;;16.50;69.00;;;;;;5101772;28;20012;-83
2021/06/20 08:26:45;;;;;;;4.35;3.85;;;16.50;69.00;;;;;;5131962;28;20020;-80
2021/06/20 08:29:11;;;;;;;4.32;3.92;;;16.60;69.30;;;;;;5100922;28;20038;-83
2021/06/20 08:31:37;;;;;;;3.85;3.47;;;16.50;69.10;;;;;;5094017;28;20111;-87
2021/06/20 08:34:06;;;;;;;4.28;3.45;;;16.60;69.40;;;;;;5083770;28;20491;-87
2021/06/20 08:36:31;;;;;;;3.22;3.00;;;16.60;69.40;;;;;;5088870;28;20093;-83
2021/06/20 08:38:57;;;;;;;3.30;2.95;;;16.60;69.40;;;;;;5085898;28;20467;-84
2021/06/20 08:41:27;;;;;;;3.63;3.17;;;16.50;69.20;;;;;;5092524;28;20035;-84
2021/06/20 08:43:54;;;;;;;3.60;3.30;;;16.60;69.50;;;;;;5089879;28;20115;-85
2021/06/20 08:46:20;;;;;;;5.07;3.20;;;16.60;69.60;;;;;;5092768;28;20043;-85
2021/06/20 08:48:46;;;;;;;4.50;2.97;;;16.60;69.60;;;;;;5091794;28;20056;-87
2021/06/20 08:51:12;;;;;;;4.20;2.75;;;16.70;69.70;;;;;;5086197;28;20031;-87
2021/06/20 08:53:41;;;;;;;4.40;3.05;;;16.70;69.70;;;;;;5090384;28;20048;-84
2021/06/20 08:56:07;;;;;;;3.50;2.78;;;16.70;69.60;;;;;;5089219;28;20506;-81
2021/06/20 08:58:34;;;;;;;3.22;2.92;;;16.70;69.60;;;;;;5089473;28;20081;-81
2021/06/20 09:01:05;;;;;;;3.20;2.83;;;16.80;69.80;;;;;;5074414;28;20491;-85
2021/06/20 09:03:45;;;;;;;4.07;2.90;;;16.80;69.70;;;;;;5079339;28;20127;-84
2021/06/20 09:06:23;;;;;;;3.50;3.20;;;16.80;69.80;;;;;;5068749;28;20044;-82
2021/06/20 09:08:55;;;;;;;3.58;2.63;;;16.80;69.70;;;;;;5069820;28;20113;-82
2021/06/20 09:11:33;;;;;;;3.88;3.05;;;16.90;69.80;;;;;;5069780;28;20032;-83
2021/06/20 09:14:10;;;;;;;3.63;3.30;;;16.90;69.80;;;;;;5077171;28;20384;-85
2021/06/20 09:16:48;;;;;;;5.55;3.50;;;17.00;69.80;;;;;;5073449;28;20024;-84
2021/06/20 09:19:15;;;;;;;3.55;3.10;;;17.10;70.00;;;;;;5100021;28;20061;-86
2021/06/20 09:21:55;;;;;;;3.13;2.83;;;17.20;69.90;;;;;;5105892;28;20035;-83
2021/06/20 09:24:21;;;;;;;3.30;3.03;;;17.20;69.90;;;;;;5088942;28;20452;-85
2021/06/20 09:26:59;;;;;;;3.38;2.80;;;17.30;69.80;;;;;;5106444;28;20136;-80
2021/06/20 09:29:34;;;;;;;3.05;2.63;;;17.40;69.90;;;;;;5089574;28;20645;-85
2021/06/20 09:32:04;;;;;;;3.53;2.75;;;17.50;70.00;;;;;;5077085;28;20036;-81
2021/06/20 09:34:42;;;;;;;2.65;2.45;;;17.60;70.00;;;;;;5080662;28;20529;-84
2021/06/20 09:37:09;;;;;;;3.45;2.80;;;17.80;70.30;;;;;;5089588;28;20020;-86
2021/06/20 09:39:35;;;;;;;3.53;2.90;;;17.90;70.10;;;;;;5089419;28;20484;-81
2021/06/20 09:42:10;;;;;;;3.05;2.70;;;18.10;70.20;;;;;;5090372;28;20028;-85
2021/06/20 09:44:44;;;;;;;3.63;3.00;;;18.20;70.20;;;;;;5088756;28;20354;-87
2021/06/20 09:47:12;;;;;;;3.22;2.65;;;18.30;70.20;;;;;;5091418;28;20040;-83
2021/06/20 09:49:40;;;;;;;4.50;2.67;;;18.30;70.00;;;;;;5089627;28;20032;-79
2021/06/20 09:52:07;;;;;;;2.75;2.53;;;18.40;70.00;;;;;;5088731;28;20114;-81
2021/06/20 09:54:45;;;;;;;7.00;4.60;;;18.50;70.00;;;;;;5068716;28;20032;-81
2021/06/20 09:57:18;;;;;;;5.10;3.53;;;18.60;70.20;;;;;;5067720;28;20541;-81
2021/06/20 10:00:03;;;;;;;6.82;4.18;;;18.60;70.10;;;;;;5082349;28;20477;-85
2021/06/20 10:02:39;;;;;;;4.75;3.38;;;18.70;70.20;;;;;;5086781;28;20116;-80
2021/06/20 10:05:08;;;;;;;5.72;3.60;;;18.70;70.10;;;;;;5089186;28;20039;-87
2021/06/20 10:07:34;;;;;;;5.10;3.40;;;18.80;70.20;;;;;;5088826;28;20437;-87
2021/06/20 10:10:03;;;;;;;5.45;3.15;;;18.80;70.10;;;;;;5067884;28;20531;-83
2021/06/20 10:12:30;;;;;;;4.93;3.17;;;18.90;70.10;;;;;;5077093;28;20574;-81
2021/06/20 10:14:58;;;;;;;3.53;3.22;;;19.00;70.20;;;;;;5089334;28;20491;-83
2021/06/20 10:17:35;;;;;;;4.55;3.10;;;19.10;70.20;;;;;;5088194;28;20028;-82
2021/06/20 10:20:06;;;;;;;8.18;4.20;;;19.20;70.20;;;;;;5088225;28;20024;-83
2021/06/20 10:22:37;;;;;;;4.85;3.97;;;19.30;70.20;;;;;;5087736;28;20358;-87
2021/06/20 10:25:06;;;;;;;4.70;3.38;;;19.40;70.20;;;;;;5071536;28;20020;-86
2021/06/20 10:27:41;;;;;;;5.90;4.05;;;19.50;70.10;;;;;;5076589;28;20063;-85
2021/06/20 10:30:26;;;;;;;4.38;3.42;;;19.60;70.10;;;;;;5090674;28;20029;-88
2021/06/20 10:33:01;;;;;;;5.03;4.55;;;19.70;70.00;;;;;;5101323;28;20055;-86
2021/06/20 10:35:27;;;;;;;5.00;4.25;;;19.70;69.80;;;;;;5068618;28;20060;-89
2021/06/20 10:37:53;;;;;;;5.65;5.05;;;19.80;69.80;;;;;;5072101;28;20458;-87
2021/06/20 10:40:42;;;;;;;7.72;6.95;;;19.80;69.60;;;;;;5089312;28;20026;-86
2021/06/20 10:43:27;;;;;;;11.13;10.13;;;19.80;69.50;;;;;;5086912;28;20139;-83
2021/06/20 10:45:53;;;;;;;15.02;13.57;;;19.80;69.40;;;;;;5104258;28;20055;-85
2021/06/20 10:48:23;;;;;;;30.63;28.33;;;19.80;69.40;;;;;;5102307;28;20103;-82
2021/06/20 10:50:55;;;;;;;101.00;92.90;;;19.80;69.40;;;;;;5086613;28;20047;-81
2021/06/20 10:53:22;;;;;;;174.85;160.93;;;19.80;69.70;;;;;;5102020;28;20471;-82
2021/06/20 10:55:52;;;;;;;206.32;189.68;;;19.80;70.00;;;;;;5068613;28;20066;-84
2021/06/20 10:58:47;;;;;;;172.68;158.63;;;19.80;70.20;;;;;;5100641;28;20035;-84
2021/06/20 11:01:22;;;;;;;160.68;147.73;;;19.80;70.50;;;;;;5080344;28;20036;-91
2021/06/20 11:05:19;;;;;;;41.13;37.90;;;19.80;70.60;;;;;;5070670;28;20106;-85
2021/06/20 11:08:04;;;;;;;13.15;11.95;;;19.80;69.40;;;;;;5119526;27;20446;-72
2021/06/20 11:10:31;;;;;;;7.57;6.95;;;19.70;69.60;;;;;;5094509;28;20382;-72
2021/06/20 11:12:57;;;;;;;5.65;4.43;;;19.60;69.40;;;;;;5092886;28;20023;-72
2021/06/20 11:15:30;;;;;;;4.43;4.07;;;19.60;68.70;;;;;;5084289;28;20560;-72
2021/06/20 11:18:07;;;;;;;3.83;3.50;;;19.50;68.30;;;;;;5083622;28;20181;-72
2021/06/20 11:20:33;;;;;;;4.05;3.58;;;19.40;68.10;;;;;;5082565;28;20028;-70
2021/06/20 11:23:00;;;;;;;7.90;7.10;;;19.30;68.10;;;;;;5090029;28;20023;-71
2021/06/20 11:25:27;;;;;;;6.53;5.93;;;19.30;68.00;;;;;;5103660;28;20393;-71
2021/06/20 11:27:53;;;;;;;5.45;4.95;;;19.20;67.90;;;;;;5102723;28;20051;-71
2021/06/20 11:30:20;;;;;;;6.38;5.88;;;19.20;67.90;;;;;;5103540;28;20036;-70
2021/06/20 11:32:47;;;;;;;8.52;6.50;;;19.10;67.80;;;;;;5075611;28;20501;-71
2021/06/20 11:35:15;;;;;;;8.18;7.47;;;19.10;67.90;;;;;;5103576;28;20519;-71
2021/06/20 11:37:44;;;;;;;8.20;7.50;;;19.00;67.80;;;;;;5085288;28;20111;-70
2021/06/20 11:40:17;;;;;;;8.65;7.75;;;19.00;67.80;;;;;;5102658;28;20486;-71
2021/06/20 11:42:50;;;;;;;8.68;7.85;;;19.00;68.00;;;;;;5103343;28;20118;-71
2021/06/20 11:45:26;;;;;;;8.93;8.00;;;19.00;68.10;;;;;;5101551;28;20768;-71
2021/06/20 11:47:54;;;;;;;9.00;8.20;;;19.00;68.10;;;;;;5092450;28;20033;-71
2021/06/20 11:50:24;;;;;;;7.75;7.05;;;19.10;68.30;;;;;;5101618;28;20024;-71
2021/06/20 11:52:57;;;;;;;6.93;6.20;;;19.30;68.50;;;;;;5103598;28;20040;-72
2021/06/20 11:55:26;;;;;;;8.45;7.65;;;19.50;68.50;;;;;;5102460;28;20473;-71
2021/06/20 11:57:54;;;;;;;8.55;7.72;;;19.70;68.90;;;;;;5101684;28;20020;-71
2021/06/20 12:00:23;;;;;;;7.60;7.00;;;19.80;68.20;;;;;;5103236;28;20168;-73
2021/06/20 12:03:12;;;;;;;8.10;7.40;;;19.90;68.10;;;;;;5102790;28;20517;-71
2021/06/20 12:05:55;;;;;;;8.50;7.65;;;19.90;68.00;;;;;;5101636;28;20035;-70
2021/06/20 12:08:22;;;;;;;8.07;7.27;;;19.90;67.80;;;;;;5084468;28;20409;-72
2021/06/20 12:10:49;;;;;;;7.53;6.82;;;19.90;67.60;;;;;;5102809;28;20269;-71
2021/06/20 12:13:16;;;;;;;7.60;6.90;;;19.90;67.60;;;;;;5099585;28;20101;-71
2021/06/20 12:15:43;;;;;;;7.38;6.68;;;19.90;67.50;;;;;;5068562;28;20035;-71
2021/06/20 12:18:11;;;;;;;9.43;6.82;;;19.90;67.60;;;;;;5072958;28;20025;-72
2021/06/20 12:20:40;;;;;;;7.18;6.47;;;19.80;67.40;;;;;;5068469;28;20078;-74
2021/06/20 12:23:08;;;;;;;7.15;6.50;;;19.70;67.30;;;;;;5070515;28;20035;-71
2021/06/20 12:25:45;;;;;;;9.43;6.88;;;19.70;67.90;;;;;;5088002;28;20413;-71
2021/06/20 12:28:12;;;;;;;7.35;6.63;;;19.60;67.20;;;;;;5058699;28;20036;-72
2021/06/20 12:30:43;;;;;;;7.80;7.05;;;19.60;67.20;;;;;;5088799;28;20520;-70
2021/06/20 12:33:11;;;;;;;8.05;6.72;;;19.50;67.10;;;;;;5082960;28;20032;-70
2021/06/20 12:35:37;;;;;;;6.95;6.35;;;19.50;67.20;;;;;;5088581;28;20038;-72
2021/06/20 12:38:18;;;;;;;7.72;6.75;;;19.50;67.20;;;;;;5088611;28;20062;-71
2021/06/20 12:40:45;;;;;;;7.13;6.63;;;19.40;67.00;;;;;;5088801;28;20028;-72
2021/06/20 12:43:16;;;;;;;7.13;6.53;;;19.40;67.10;;;;;;5070095;28;20417;-71
2021/06/20 12:45:43;;;;;;;6.28;5.78;;;19.40;67.30;;;;;;5086043;28;20569;-74
2021/06/20 12:48:14;;;;;;;6.80;5.40;;;19.30;67.10;;;;;;5073124;28;20059;-71
2021/06/20 12:50:45;;;;;;;5.75;5.25;;;19.30;67.20;;;;;;5086759;28;20036;-71
2021/06/20 12:53:11;;;;;;;5.80;5.40;;;19.30;67.20;;;;;;5088007;28;20028;-71